createdAt,value
2019-05-25T00:00:18.268Z,80.02
2019-05-25T00:01:18.251Z,80.40
2019-05-25T00:02:18.236Z,82.08
2019-05-25T00:03:18.216Z,83.04
2019-05-25T00:04:18.212Z,84.47
2019-05-25T00:05:18.181Z,84.95
2019-05-25T00:06:18.163Z,85.42
2019-05-25T00:07:18.146Z,85.42
2019-05-25T00:08:18.129Z,84.56
2019-05-25T00:09:18.128Z,85.42
2019-05-25T00:10:18.097Z,85.81
2019-05-25T00:11:18.079Z,85.33
2019-05-25T00:12:18.066Z,84.47
2019-05-25T00:13:18.041Z,84.66
2019-05-25T00:14:18.040Z,85.14
2019-05-25T00:15:18.009Z,86.00
2019-05-25T00:16:17.990Z,86.76
2019-05-25T00:17:17.975Z,88.34
2019-05-25T00:18:17.988Z,89.11
2019-05-25T00:19:17.939Z,89.87
2019-05-25T00:20:17.920Z,90.25
2019-05-25T00:21:17.906Z,90.25
2019-05-25T00:22:17.886Z,90.35
2019-05-25T00:23:17.886Z,91.30
2019-05-25T00:24:17.851Z,92.07
2019-05-25T00:25:17.849Z,92.83
2019-05-25T00:26:17.815Z,93.46
2019-05-25T00:27:17.802Z,93.07
2019-05-25T00:28:17.781Z,92.97
2019-05-25T00:29:17.777Z,92.60
2019-05-25T00:30:17.748Z,92.41
2019-05-25T00:31:17.730Z,94.03
2019-05-25T00:32:17.711Z,94.22
2019-05-25T00:33:17.694Z,94.36
2019-05-25T00:34:17.687Z,95.32
2019-05-25T00:35:17.664Z,95.79
2019-05-25T00:36:17.640Z,96.27
2019-05-25T00:37:17.626Z,97.42
2019-05-25T00:38:17.607Z,97.99
2019-05-25T00:39:17.602Z,97.89
2019-05-25T00:40:17.571Z,98.27
2019-05-25T00:41:17.557Z,99.13
2019-05-25T00:42:17.533Z,99.99
2019-05-25T00:43:17.518Z,99.61
2019-05-25T00:44:17.513Z,99.95
2019-05-25T00:45:17.479Z,99.99
2019-05-25T00:46:17.462Z,99.99
2019-05-25T00:47:17.445Z,99.99
2019-05-25T00:48:17.427Z,99.99
2019-05-25T00:49:17.424Z,99.99
2019-05-25T00:50:17.391Z,99.99
2019-05-25T00:51:17.374Z,99.99
2019-05-25T00:52:17.426Z,99.99
2019-05-25T00:53:17.336Z,99.99
2019-05-25T00:54:27.603Z,99.99
2019-05-25T00:55:17.302Z,99.99
2019-05-25T00:56:17.288Z,99.99
2019-05-25T00:57:17.266Z,99.99
2019-05-25T00:58:17.250Z,99.99
2019-05-25T00:59:17.270Z,99.99
2019-05-25T01:00:17.216Z,99.99
2019-05-25T01:01:17.206Z,99.99
2019-05-25T01:02:17.175Z,99.99
2019-05-25T01:03:17.162Z,99.99
2019-05-25T01:04:17.140Z,99.99
2019-05-25T01:05:17.136Z,99.99
2019-05-25T01:06:17.103Z,99.99
2019-05-25T01:07:17.088Z,99.99
2019-05-25T01:08:17.069Z,99.99
2019-05-25T01:09:17.048Z,99.99
2019-05-25T01:10:17.075Z,99.99
2019-05-25T01:11:17.012Z,99.99
2019-05-25T01:12:16.994Z,99.99
2019-05-25T01:13:16.975Z,99.99
2019-05-25T01:14:16.961Z,99.99
2019-05-25T01:15:16.953Z,99.99
2019-05-25T01:16:16.925Z,99.99
2019-05-25T01:17:16.905Z,99.99
2019-05-25T01:18:16.887Z,99.99
2019-05-25T01:19:16.870Z,99.99
2019-05-25T01:20:16.873Z,99.99
2019-05-25T01:21:16.831Z,99.99
2019-05-25T01:22:16.814Z,99.99
2019-05-25T01:23:16.794Z,99.99
2019-05-25T01:24:16.779Z,99.99
2019-05-25T01:25:16.777Z,99.99
2019-05-25T01:26:16.739Z,99.99
2019-05-25T01:27:16.727Z,99.99
2019-05-25T01:28:16.704Z,99.99
2019-05-25T01:29:16.684Z,99.99
2019-05-25T01:30:16.681Z,99.99
2019-05-25T01:31:16.648Z,99.99
2019-05-25T01:32:16.631Z,99.99
2019-05-25T01:33:16.612Z,99.99
2019-05-25T01:34:16.591Z,99.99
2019-05-25T01:35:16.589Z,99.99
2019-05-25T01:36:16.561Z,99.99
2019-05-25T01:37:16.574Z,99.99
2019-05-25T01:38:16.521Z,99.99
2019-05-25T01:39:16.501Z,99.99
2019-05-25T01:40:16.501Z,99.99
2019-05-25T01:41:16.465Z,99.99
2019-05-25T01:42:16.445Z,99.99
2019-05-25T01:43:16.428Z,99.99
2019-05-25T01:44:16.408Z,99.99
2019-05-25T01:45:16.399Z,99.99
2019-05-25T01:46:16.388Z,99.99
2019-05-25T01:47:16.355Z,99.99
2019-05-25T01:48:16.339Z,99.99
2019-05-25T01:49:16.317Z,99.99
2019-05-25T01:50:16.303Z,99.99
2019-05-25T01:51:16.295Z,99.99
2019-05-25T01:52:16.264Z,99.99
2019-05-25T01:53:16.247Z,99.99
2019-05-25T01:54:16.225Z,99.99
2019-05-25T01:55:16.207Z,99.99
2019-05-25T01:56:16.200Z,99.99
2019-05-25T01:57:16.169Z,99.99
2019-05-25T01:58:16.149Z,99.99
2019-05-25T01:59:16.132Z,99.99
2019-05-25T02:00:16.115Z,99.99
2019-05-25T02:01:16.114Z,99.99
2019-05-25T02:02:16.103Z,99.99
2019-05-25T02:03:16.058Z,99.99
2019-05-25T02:04:16.041Z,99.99
2019-05-25T02:05:16.020Z,99.99
2019-05-25T02:06:16.003Z,99.99
2019-05-25T02:07:16.002Z,99.99
2019-05-25T02:08:15.965Z,99.99
2019-05-25T02:09:15.944Z,99.99
2019-05-25T02:10:15.929Z,99.99
2019-05-25T02:11:15.909Z,99.99
2019-05-25T02:12:15.906Z,99.99
2019-05-25T02:13:15.869Z,99.99
2019-05-25T02:14:15.853Z,99.99
2019-05-25T02:15:15.833Z,99.99
2019-05-25T02:16:15.815Z,99.99
2019-05-25T02:17:15.813Z,99.99
2019-05-25T02:18:15.781Z,99.99
2019-05-25T02:19:15.759Z,99.99
2019-05-25T02:20:15.741Z,99.99
2019-05-25T02:21:15.720Z,99.99
2019-05-25T02:22:15.730Z,99.99
2019-05-25T02:23:15.686Z,99.99
2019-05-25T02:24:15.667Z,99.99
2019-05-25T02:25:18.173Z,99.99
2019-05-25T02:26:15.630Z,99.99
2019-05-25T02:27:15.613Z,99.99
2019-05-25T02:28:15.604Z,99.99
2019-05-25T02:29:15.572Z,99.99
2019-05-25T02:30:15.554Z,99.99
2019-05-25T06:34:16.225Z,86.88
2019-05-25T06:35:16.196Z,86.50
2019-05-25T06:36:16.276Z,88.03
2019-05-25T06:37:16.160Z,86.31
2019-05-25T06:38:16.134Z,84.95
2019-05-25T06:39:16.141Z,84.19
2019-05-25T06:40:16.098Z,82.98
2019-05-25T06:41:16.080Z,83.38
2019-05-25T06:42:16.060Z,84.25
2019-05-25T06:43:16.049Z,84.25
2019-05-25T06:44:16.048Z,83.95
2019-05-25T06:45:16.020Z,83.76
2019-05-25T06:46:15.992Z,84.00
2019-05-25T06:47:15.975Z,82.23
2019-05-25T06:48:15.956Z,83.05
2019-05-25T06:49:15.941Z,84.11
2019-05-25T06:50:15.939Z,83.95
2019-05-25T06:51:15.908Z,83.92
2019-05-25T06:52:15.895Z,85.54
2019-05-25T06:53:15.875Z,84.91
2019-05-25T06:54:15.860Z,83.81
2019-05-25T06:55:15.860Z,82.31
2019-05-25T06:56:15.828Z,82.18
2019-05-25T06:57:15.813Z,81.95
2019-05-25T06:58:15.795Z,82.56
2019-05-25T06:59:15.779Z,80.87
2019-05-25T07:00:15.777Z,80.40
2019-05-25T07:01:15.746Z,79.91
2019-05-25T07:02:15.727Z,79.49
2019-05-25T07:03:15.714Z,80.68
2019-05-25T07:04:15.696Z,80.20
2019-05-25T07:05:15.695Z,81.12
2019-05-25T07:06:15.665Z,81.49
2019-05-25T07:07:15.651Z,79.90
2019-05-25T07:08:15.633Z,79.17
2019-05-25T07:09:15.619Z,77.94
2019-05-25T07:10:15.619Z,78.38
2019-05-25T07:11:15.585Z,80.11
2019-05-25T07:12:15.570Z,80.11
2019-05-25T07:13:15.553Z,78.45
2019-05-25T07:14:15.539Z,77.21
2019-05-25T07:15:15.526Z,76.98
2019-05-25T07:16:15.526Z,79.05
2019-05-25T07:17:15.493Z,80.20
2019-05-25T07:18:15.477Z,78.90
2019-05-25T07:19:15.465Z,78.13
2019-05-25T07:20:15.448Z,79.19
2019-05-25T07:21:15.450Z,78.52
2019-05-25T07:22:15.485Z,79.19
2019-05-25T07:23:15.402Z,80.07
2019-05-25T07:24:15.389Z,82.37
2019-05-25T07:25:15.369Z,82.27
2019-05-25T07:26:15.373Z,83.58
2019-05-25T07:27:15.340Z,85.21
2019-05-25T07:28:15.323Z,85.35
2019-05-25T07:29:15.309Z,86.69
2019-05-25T07:45:42.734Z,87.46
2019-05-25T07:46:42.696Z,88.23
2019-05-25T07:47:42.695Z,87.37
2019-05-25T07:48:42.659Z,86.69
2019-05-25T07:49:42.648Z,87.37
2019-05-25T07:50:42.626Z,86.41
2019-05-25T07:51:42.622Z,86.88
2019-05-25T07:52:42.607Z,87.37
2019-05-25T07:53:42.577Z,87.84
2019-05-25T07:54:42.562Z,88.56
2019-05-25T07:55:42.543Z,87.41
2019-05-25T07:56:42.529Z,85.49
2019-05-25T07:57:42.530Z,83.86
2019-05-25T07:58:42.495Z,84.88
2019-05-25T07:59:42.479Z,84.68
2019-05-25T08:00:42.463Z,85.58
2019-05-25T08:01:42.449Z,85.58
2019-05-25T08:02:42.433Z,84.25
2019-05-25T08:03:42.537Z,84.63
2019-05-25T08:04:42.402Z,84.97
2019-05-25T08:05:42.387Z,84.58
2019-05-25T08:06:42.380Z,85.25
2019-05-25T08:07:42.354Z,84.97
2019-05-25T08:08:42.353Z,84.49
2019-05-25T08:09:42.325Z,84.20
2019-05-25T08:10:42.308Z,84.05
2019-05-25T08:11:42.297Z,84.44
2019-05-25T08:12:42.277Z,84.63
2019-05-25T08:13:42.282Z,84.63
2019-05-25T08:14:45.013Z,84.25
2019-05-25T08:15:42.231Z,85.82
2019-05-25T08:16:42.216Z,83.23
2019-05-25T08:17:42.199Z,82.65
2019-05-25T08:18:42.187Z,81.70
2019-05-25T08:19:42.186Z,81.31
2019-05-25T08:20:42.156Z,81.89
2019-05-25T08:21:42.142Z,82.37
2019-05-25T08:22:42.127Z,81.41
2019-05-25T08:23:42.113Z,79.59
2019-05-25T08:24:42.109Z,80.55
2019-05-25T08:25:42.077Z,81.98
2019-05-25T08:26:42.078Z,81.12
2019-05-25T08:27:42.048Z,81.27
2019-05-25T08:28:42.033Z,80.51
2019-05-25T08:29:42.033Z,80.12
2019-05-25T08:30:42.039Z,81.18
2019-05-25T08:31:42.005Z,82.75
2019-05-25T08:32:41.980Z,82.81
2019-05-25T08:33:41.958Z,83.81
2019-05-25T08:34:41.957Z,82.42
2019-05-25T08:35:41.927Z,81.95
2019-05-25T08:46:15.752Z,81.56
2019-05-25T08:47:15.720Z,81.75
2019-05-25T08:48:15.705Z,81.27
2019-05-25T08:49:15.689Z,80.55
2019-05-25T08:50:15.709Z,80.03
2019-05-25T08:51:15.657Z,81.56
2019-05-25T08:52:15.644Z,81.60
2019-05-25T08:53:15.628Z,79.97
2019-05-25T08:54:15.605Z,78.92
2019-05-25T09:05:22.959Z,81.89
2019-05-25T09:06:22.926Z,81.54
2019-05-25T09:07:22.923Z,81.12
2019-05-25T09:08:22.892Z,81.31
2019-05-25T09:09:22.893Z,81.12
2019-05-25T09:10:22.877Z,81.16
2019-05-25T09:11:22.848Z,81.45
2019-05-25T09:12:22.832Z,82.31
2019-05-25T09:13:22.813Z,83.22
2019-05-25T09:14:22.831Z,81.40
2019-05-25T09:15:22.792Z,80.63
2019-05-25T09:16:22.781Z,80.15
2019-05-25T09:17:22.747Z,78.99
2019-05-25T09:18:22.741Z,79.86
2019-05-25T09:19:22.715Z,80.19
2019-05-25T09:20:22.712Z,79.86
2019-05-25T09:21:22.719Z,80.34
2019-05-25T09:22:22.669Z,79.91
2019-05-25T09:23:22.656Z,80.49
2019-05-25T09:24:22.640Z,82.51
2019-05-25T09:25:22.626Z,82.56
2019-05-25T09:26:22.612Z,83.37
2019-05-25T09:27:22.609Z,83.85
2019-05-25T09:28:22.576Z,82.89
2019-05-25T09:29:22.599Z,83.37
2019-05-25T09:30:22.584Z,82.51
2019-05-25T09:31:22.554Z,82.70
2019-05-25T09:32:22.559Z,83.18
2019-05-25T09:33:22.514Z,83.08
2019-05-25T09:34:22.499Z,82.26
2019-05-25T09:35:22.486Z,81.59
2019-05-25T09:36:22.463Z,79.57
2019-05-25T09:37:22.460Z,81.10
2019-05-25T09:38:22.425Z,80.40
2019-05-25T09:39:22.412Z,79.86
2019-05-25T09:40:22.410Z,80.53
2019-05-25T09:41:22.419Z,80.63
2019-05-25T09:42:22.396Z,80.43
2019-05-25T09:43:22.362Z,80.78
2019-05-25T09:44:22.340Z,80.55
2019-05-25T09:45:22.334Z,82.51
2019-05-25T09:46:22.325Z,81.35
2019-05-25T09:47:22.301Z,79.82
2019-05-25T09:48:22.306Z,79.19
2019-05-25T09:49:22.275Z,77.94
2019-05-25T09:50:22.289Z,77.59
2019-05-25T09:51:22.251Z,78.30
2019-05-25T09:52:22.240Z,77.25
2019-05-25T09:53:22.277Z,76.90
2019-05-25T09:54:22.217Z,77.63
2019-05-25T09:55:22.191Z,78.59
2019-05-25T09:56:22.187Z,80.61
2019-05-25T09:57:22.164Z,79.03
2019-05-25T09:58:22.162Z,80.15
2019-05-25T09:59:22.170Z,79.76
2019-05-25T10:00:22.181Z,79.38
2019-05-25T10:01:22.114Z,78.90
2019-05-25T10:02:22.140Z,80.09
2019-05-25T10:03:22.090Z,77.78
2019-05-25T10:04:22.083Z,78.17
2019-05-25T10:05:22.111Z,76.73
2019-05-25T10:06:22.070Z,77.53
2019-05-25T10:07:22.027Z,77.69
2019-05-25T10:08:22.012Z,76.92
2019-05-25T10:09:22.033Z,78.45
2019-05-25T10:10:21.985Z,78.36
2019-05-25T10:11:21.968Z,77.40
2019-05-25T10:12:21.954Z,77.01
2019-05-25T10:13:21.935Z,75.57
2019-05-25T10:14:21.947Z,77.01
2019-05-25T10:15:21.940Z,77.88
2019-05-25T10:16:21.904Z,77.40
2019-05-25T10:17:21.886Z,77.34
2019-05-25T10:18:21.876Z,76.82
2019-05-25T10:19:21.869Z,76.54
2019-05-25T10:20:21.873Z,76.86
2019-05-25T10:21:21.821Z,77.15
2019-05-25T10:22:21.801Z,76.06
2019-05-25T10:23:21.803Z,76.25
2019-05-25T10:24:21.772Z,76.06
2019-05-25T10:25:21.767Z,75.32
2019-05-25T10:26:23.170Z,73.69
2019-05-25T10:27:21.725Z,74.02
2019-05-25T10:28:21.710Z,74.11
2019-05-25T10:29:36.000Z,75.46
2019-05-25T10:30:21.697Z,73.98
2019-05-25T10:31:21.670Z,75.32
2019-05-25T10:32:21.657Z,75.04
2019-05-25T10:33:21.929Z,75.13
2019-05-25T10:34:21.627Z,73.69
2019-05-25T10:35:21.630Z,73.60
2019-05-25T10:36:21.601Z,73.63
2019-05-25T10:37:21.586Z,72.73
2019-05-25T10:38:21.575Z,73.15
2019-05-25T10:39:21.559Z,72.61
2019-05-25T10:40:21.558Z,72.32
2019-05-25T10:41:21.532Z,70.50
2019-05-25T10:42:21.520Z,71.59
2019-05-25T10:43:21.512Z,71.30
2019-05-25T10:44:21.491Z,71.01
2019-05-25T10:45:21.497Z,69.28
2019-05-25T10:46:21.463Z,70.75
2019-05-25T10:47:21.451Z,72.19
2019-05-25T10:48:21.439Z,73.35
2019-05-25T10:49:21.425Z,73.35
2019-05-25T10:50:21.428Z,72.38
2019-05-25T10:51:21.406Z,73.86
2019-05-25T10:52:21.386Z,71.46
2019-05-25T10:53:21.371Z,71.75
2019-05-25T10:54:21.357Z,72.23
2019-05-25T10:55:21.345Z,72.90
2019-05-25T10:56:21.345Z,73.09
2019-05-25T10:57:21.323Z,70.78
2019-05-25T10:58:21.304Z,72.26
2019-05-25T10:59:21.291Z,71.14
2019-05-25T11:00:21.278Z,69.82
2019-05-25T11:01:21.279Z,71.97
2019-05-25T11:02:21.256Z,69.85
2019-05-25T11:03:21.241Z,68.60
2019-05-25T11:04:21.224Z,68.26
2019-05-25T11:05:21.211Z,67.29
2019-05-25T11:06:21.214Z,67.68
2019-05-25T11:07:21.192Z,66.14
2019-05-25T11:08:21.173Z,67.58
2019-05-25T11:09:21.157Z,66.78
2019-05-25T11:10:21.145Z,66.91
2019-05-25T11:11:21.130Z,68.58
2019-05-25T11:12:21.133Z,66.33
2019-05-25T11:13:21.105Z,66.01
2019-05-25T11:14:21.096Z,67.00
2019-05-25T11:15:21.076Z,67.03
2019-05-25T11:16:21.067Z,66.49
2019-05-25T11:17:21.064Z,65.94
2019-05-25T11:18:21.049Z,66.65
2019-05-25T11:19:24.042Z,65.91
2019-05-25T11:20:21.011Z,66.33
2019-05-25T11:21:20.998Z,66.85
2019-05-25T11:22:21.012Z,65.95
2019-05-25T11:23:20.978Z,66.97
2019-05-25T11:24:20.958Z,66.39
2019-05-25T11:25:20.942Z,64.40
2019-05-25T11:26:20.936Z,63.85
2019-05-25T11:27:20.928Z,64.24
2019-05-25T11:28:20.903Z,62.66
2019-05-25T11:29:20.890Z,63.02
2019-05-25T11:30:20.878Z,62.80
2019-05-25T11:31:20.862Z,63.21
2019-05-25T11:32:20.871Z,63.34
2019-05-25T11:33:20.839Z,61.90
2019-05-25T11:34:20.824Z,63.98
2019-05-25T11:35:20.809Z,62.76
2019-05-25T11:36:20.795Z,62.05
2019-05-25T11:37:20.785Z,62.41
2019-05-25T11:38:20.784Z,62.66
2019-05-25T11:39:20.761Z,62.22
2019-05-25T11:40:20.743Z,61.57
2019-05-25T11:41:20.732Z,60.41
2019-05-25T11:42:20.717Z,60.54
2019-05-25T11:43:20.722Z,61.22
2019-05-25T11:44:20.691Z,62.22
2019-05-25T11:45:20.679Z,62.45
2019-05-25T11:46:20.666Z,63.34
2019-05-25T11:47:20.656Z,62.76
2019-05-25T11:48:20.639Z,63.31
2019-05-25T11:49:22.758Z,62.09
2019-05-25T11:50:20.619Z,61.61
2019-05-25T11:51:20.619Z,62.86
2019-05-25T11:52:20.590Z,62.60
2019-05-25T11:53:20.596Z,62.35
2019-05-25T11:54:20.564Z,63.12
2019-05-25T11:55:20.555Z,62.70
2019-05-25T11:56:20.544Z,62.38
2019-05-25T11:57:20.524Z,62.57
2019-05-25T11:58:20.511Z,62.31
2019-05-25T11:59:20.515Z,61.64
2019-05-25T12:00:26.048Z,60.61
2019-05-25T12:01:20.474Z,60.03
2019-05-25T12:02:20.462Z,61.57
2019-05-25T12:03:20.459Z,60.39
2019-05-25T12:04:20.435Z,61.74
2019-05-25T12:05:20.422Z,62.32
2019-05-25T12:06:20.410Z,61.51
2019-05-25T12:07:20.399Z,60.48
2019-05-25T12:08:20.397Z,60.31
2019-05-25T12:09:20.370Z,60.54
2019-05-25T12:10:20.359Z,59.28
2019-05-25T12:11:20.355Z,58.54
2019-05-25T12:12:20.406Z,56.80
2019-05-25T12:13:20.339Z,58.18
2019-05-25T12:14:20.307Z,57.19
2019-05-25T12:15:20.294Z,57.41
2019-05-25T12:16:20.283Z,56.39
2019-05-25T12:17:20.270Z,57.10
2019-05-25T12:18:20.272Z,59.25
2019-05-25T12:19:20.255Z,59.86
2019-05-25T12:20:20.232Z,60.71
2019-05-25T12:21:20.218Z,60.19
2019-05-25T12:22:20.207Z,60.96
2019-05-25T12:23:20.211Z,59.42
2019-05-25T12:24:20.185Z,59.03
2019-05-25T12:25:20.167Z,58.39
2019-05-25T12:26:20.157Z,59.31
2019-05-25T12:27:20.155Z,57.81
2019-05-25T12:28:20.133Z,59.60
2019-05-25T12:29:20.135Z,59.31
2019-05-25T12:30:20.121Z,57.87
2019-05-25T12:31:20.094Z,57.48
2019-05-25T12:32:20.081Z,57.87
2019-05-25T12:33:20.070Z,57.14
2019-05-25T12:34:20.072Z,59.09
2019-05-25T12:35:20.043Z,59.55
2019-05-25T12:36:20.032Z,60.51
2019-05-25T12:37:20.022Z,59.86
2019-05-25T12:38:20.010Z,57.60
2019-05-25T12:39:20.016Z,56.95
2019-05-25T12:40:19.990Z,56.03
2019-05-25T12:41:19.972Z,57.54
2019-05-25T12:42:19.962Z,59.02
2019-05-25T12:43:19.948Z,57.20
2019-05-25T12:44:19.937Z,58.58
2019-05-25T12:45:19.939Z,59.32
2019-05-25T12:46:19.913Z,58.29
2019-05-25T12:47:19.900Z,57.19
2019-05-25T12:48:19.890Z,57.92
2019-05-25T12:49:19.878Z,57.97
2019-05-25T12:50:19.881Z,61.48
2019-05-25T12:51:19.854Z,60.32
2019-05-25T12:52:19.843Z,60.32
2019-05-25T12:53:19.828Z,61.80
2019-05-25T12:54:19.819Z,59.97
2019-05-25T12:55:19.822Z,59.90
2019-05-25T12:56:19.800Z,58.84
2019-05-25T12:57:19.800Z,58.72
2019-05-25T12:58:19.774Z,60.35
2019-05-25T12:59:19.773Z,59.48
2019-05-25T13:00:19.762Z,60.28
2019-05-25T13:01:19.737Z,58.62
2019-05-25T13:02:19.726Z,59.45
2019-05-25T13:03:19.713Z,59.65
2019-05-25T13:04:19.703Z,59.74
2019-05-25T13:05:32.933Z,57.93
2019-05-25T13:06:19.678Z,57.10
2019-05-25T13:07:19.665Z,58.17
2019-05-25T13:08:19.657Z,57.35
2019-05-25T13:09:19.644Z,57.35
2019-05-25T13:10:19.650Z,55.93
2019-05-25T13:11:19.623Z,56.87
2019-05-25T13:12:19.615Z,56.96
2019-05-25T13:13:19.602Z,57.21
2019-05-25T13:14:19.594Z,54.87
2019-05-25T13:15:19.592Z,54.44
2019-05-25T13:16:19.567Z,55.05
2019-05-25T13:17:19.561Z,55.53
2019-05-25T13:18:19.549Z,54.27
2019-05-25T13:19:19.546Z,52.92
2019-05-25T13:20:19.543Z,52.49
2019-05-25T13:21:19.516Z,52.22
2019-05-25T13:22:19.507Z,53.13
2019-05-25T13:23:19.496Z,54.44
2019-05-25T13:24:19.486Z,53.77
2019-05-25T13:25:19.492Z,54.05
2019-05-25T13:26:19.470Z,54.03
2019-05-25T13:27:19.456Z,53.88
2019-05-25T13:28:19.448Z,54.97
2019-05-25T13:29:19.438Z,55.07
2019-05-25T13:30:19.442Z,55.05
2019-05-25T13:31:19.418Z,52.92
2019-05-25T13:32:19.409Z,52.08
2019-05-25T13:33:19.402Z,51.87
2019-05-25T13:34:19.407Z,56.04
2019-05-25T13:35:19.381Z,57.52
2019-05-25T13:36:19.370Z,56.58
2019-05-25T13:37:19.363Z,56.13
2019-05-25T13:38:19.357Z,55.26
2019-05-25T13:39:19.359Z,54.75
2019-05-25T13:40:19.336Z,53.23
2019-05-25T13:41:19.326Z,53.16
2019-05-25T13:42:19.319Z,52.27
2019-05-25T13:43:19.306Z,52.17
2019-05-25T13:44:19.311Z,53.07
2019-05-25T13:45:19.288Z,52.32
2019-05-25T13:46:19.280Z,52.00
2019-05-25T13:47:19.270Z,53.26
2019-05-25T13:48:19.265Z,53.22
2019-05-25T13:49:19.270Z,52.06
2019-05-25T13:50:19.247Z,52.00
2019-05-25T13:51:19.242Z,51.95
2019-05-25T13:52:19.239Z,52.29
2019-05-25T13:53:19.221Z,51.98
2019-05-25T13:54:19.230Z,51.86
2019-05-25T13:55:19.208Z,52.08
2019-05-25T13:56:19.209Z,50.72
2019-05-25T13:57:19.193Z,49.87
2019-05-25T13:58:19.188Z,52.89
2019-05-25T13:59:19.190Z,53.06
2019-05-25T14:00:19.170Z,51.83
2019-05-25T14:01:27.844Z,51.85
2019-05-25T14:02:19.155Z,55.12
2019-05-25T14:03:19.146Z,58.85
2019-05-25T14:04:19.152Z,61.29
2019-05-25T14:05:19.131Z,59.41
2019-05-25T14:06:19.126Z,56.28
2019-05-25T14:07:19.117Z,54.21
2019-05-25T14:08:19.114Z,52.73
2019-05-25T14:09:19.114Z,53.03
2019-05-25T14:10:19.101Z,53.09
2019-05-25T14:11:19.082Z,53.03
2019-05-25T14:12:19.074Z,54.19
2019-05-25T14:13:19.068Z,54.46
2019-05-25T14:14:19.073Z,55.57
2019-05-25T14:15:19.052Z,55.29
2019-05-25T14:16:19.042Z,54.05
2019-05-25T14:17:19.035Z,53.19
2019-05-25T14:18:19.029Z,52.97
2019-05-25T14:19:19.034Z,53.31
2019-05-25T14:20:19.012Z,52.34
2019-05-25T14:21:19.007Z,52.95
2019-05-25T14:22:18.999Z,52.94
2019-05-25T14:23:18.991Z,54.66
2019-05-25T14:24:19.022Z,53.23
2019-05-25T14:25:18.976Z,51.54
2019-05-25T14:26:18.971Z,49.85
2019-05-25T14:27:18.963Z,49.44
2019-05-25T14:28:18.957Z,48.25
2019-05-25T14:29:18.950Z,48.10
2019-05-25T14:30:18.958Z,49.70
2019-05-25T14:31:18.937Z,52.70
2019-05-25T14:32:18.935Z,54.08
2019-05-25T14:33:18.924Z,53.81
2019-05-25T14:34:18.916Z,54.35
2019-05-25T14:35:18.926Z,53.14
2019-05-25T14:36:18.913Z,53.19
2019-05-25T14:37:18.900Z,51.04
2019-05-25T14:38:18.894Z,51.45
2019-05-25T14:39:18.885Z,52.15
2019-05-25T14:40:18.894Z,51.28
2019-05-25T14:41:18.874Z,52.99
2019-05-25T14:42:18.866Z,54.25
2019-05-25T14:43:18.861Z,54.17
2019-05-25T14:44:18.855Z,54.75
2019-05-25T14:45:18.863Z,55.89
2019-05-25T14:46:27.376Z,58.37
2019-05-25T14:47:18.835Z,59.52
2019-05-25T14:48:18.830Z,59.94
2019-05-25T14:49:18.826Z,58.07
2019-05-25T14:50:18.828Z,57.75
2019-05-25T14:51:18.807Z,59.65
2019-05-25T14:52:18.798Z,57.09
2019-05-25T14:53:18.811Z,54.27
2019-05-25T14:54:18.787Z,52.82
2019-05-25T14:55:18.792Z,52.80
2019-05-25T14:56:18.771Z,52.89
2019-05-25T14:57:18.762Z,54.44
2019-05-25T14:58:18.757Z,51.18
2019-05-25T14:59:18.747Z,50.96
2019-05-25T15:00:18.835Z,51.44
2019-05-25T15:01:18.735Z,51.06
2019-05-25T15:02:18.729Z,51.90
2019-05-25T15:03:18.745Z,51.56
2019-05-25T15:04:18.712Z,50.98
2019-05-25T15:05:18.719Z,51.86
2019-05-25T15:06:20.965Z,51.06
2019-05-25T15:07:18.698Z,50.48
2019-05-25T15:08:18.687Z,50.04
2019-05-25T15:09:18.680Z,50.67
2019-05-25T15:10:18.690Z,49.19
2019-05-25T15:11:18.669Z,47.81
2019-05-25T15:12:18.668Z,46.98
2019-05-25T15:13:18.685Z,47.81
2019-05-25T15:14:18.653Z,49.92
2019-05-25T15:15:18.662Z,50.96
2019-05-25T15:16:18.723Z,49.90
2019-05-25T15:17:18.635Z,50.09
2019-05-25T15:18:18.631Z,50.16
2019-05-25T15:19:18.625Z,49.77
2019-05-25T15:20:18.624Z,48.66
2019-05-25T15:21:18.960Z,48.32
2019-05-25T15:22:18.613Z,48.03
2019-05-25T15:23:18.604Z,47.30
2019-05-25T15:24:18.601Z,47.67
2019-05-25T15:25:18.596Z,47.79
2019-05-25T15:26:18.605Z,49.32
2019-05-25T15:27:18.586Z,47.28
2019-05-25T15:28:18.583Z,45.45
2019-05-25T15:29:18.577Z,45.68
2019-05-25T15:30:18.573Z,46.09
2019-05-25T15:31:18.593Z,48.15
2019-05-25T15:32:20.369Z,49.51
2019-05-25T15:33:18.563Z,51.61
2019-05-25T15:34:18.556Z,51.71
2019-05-25T15:35:20.323Z,50.93
2019-05-25T15:36:18.567Z,51.95
2019-05-25T15:37:18.542Z,53.20
2019-05-25T15:38:18.538Z,53.06
2019-05-25T15:39:18.533Z,51.56
2019-05-25T15:40:18.530Z,50.72
2019-05-25T15:41:18.524Z,49.24
2019-05-25T15:42:18.538Z,48.76
2019-05-25T15:43:18.520Z,48.27
2019-05-25T15:44:18.511Z,48.18
2019-05-25T15:45:18.518Z,47.45
2019-05-25T15:46:18.504Z,46.62
2019-05-25T15:47:18.512Z,49.24
2019-05-25T15:48:18.497Z,50.09
2019-05-25T15:49:18.491Z,50.43
2019-05-25T15:50:18.486Z,50.07
2019-05-25T15:51:18.501Z,50.67
2019-05-25T15:52:18.491Z,51.44
2019-05-25T15:53:18.530Z,53.63
2019-05-25T15:54:18.466Z,55.70
2019-05-25T15:55:18.463Z,56.82
2019-05-25T15:56:18.460Z,57.76
2019-05-25T15:57:18.470Z,58.34
2019-05-25T15:58:18.449Z,59.47
2019-05-25T15:59:18.441Z,59.56
2019-05-25T16:00:18.434Z,57.49
2019-05-25T16:01:18.428Z,54.62
2019-05-25T16:02:18.436Z,53.95
2019-05-25T16:03:18.413Z,54.29
2019-05-25T16:04:18.407Z,54.46
2019-05-25T16:05:18.400Z,54.14
2019-05-25T16:06:18.397Z,54.75
2019-05-25T16:07:18.400Z,54.49
2019-05-25T16:08:18.380Z,54.15
2019-05-25T16:09:18.376Z,52.20
2019-05-25T16:10:18.366Z,51.52
2019-05-25T16:11:18.358Z,49.80
2019-05-25T16:12:18.367Z,51.18
2019-05-25T16:13:18.350Z,49.77
2019-05-25T16:14:18.353Z,49.29
2019-05-25T16:15:18.334Z,49.70
2019-05-25T16:16:18.330Z,51.32
2019-05-25T16:17:18.335Z,50.07
2019-05-25T16:18:18.318Z,50.21
2019-05-25T16:19:18.318Z,49.24
2019-05-25T16:20:18.305Z,51.08
2019-05-25T16:21:18.301Z,50.92
2019-05-25T16:22:18.307Z,49.68
2019-05-25T16:23:18.288Z,50.14
2019-05-25T16:24:18.283Z,50.35
2019-05-25T16:25:18.298Z,50.12
2019-05-25T16:26:18.274Z,50.12
2019-05-25T16:27:18.283Z,51.68
2019-05-25T16:28:18.261Z,52.10
2019-05-25T16:29:18.258Z,51.45
2019-05-25T16:30:18.254Z,50.60
2019-05-25T16:31:18.246Z,51.72
2019-05-25T16:32:18.258Z,50.24
2019-05-25T16:33:18.236Z,48.52
2019-05-25T16:34:18.233Z,47.78
2019-05-25T16:35:18.229Z,48.32
2019-05-25T16:36:18.226Z,50.55
2019-05-25T16:37:18.540Z,51.66
2019-05-25T16:38:18.217Z,50.09
2019-05-25T16:39:18.209Z,50.72
2019-05-25T16:40:18.209Z,49.97
2019-05-25T16:41:18.216Z,48.52
2019-05-25T16:42:18.197Z,48.22
2019-05-25T16:43:18.211Z,47.55
2019-05-25T16:44:18.202Z,48.47
2019-05-25T16:45:18.186Z,48.37
2019-05-25T16:46:18.181Z,48.37
2019-05-25T16:47:18.177Z,49.63
2019-05-25T16:48:18.195Z,49.82
2019-05-25T16:49:18.169Z,48.81
2019-05-25T16:50:18.165Z,51.78
2019-05-25T16:51:18.160Z,51.76
2019-05-25T16:52:18.156Z,51.47
2019-05-25T16:53:18.172Z,51.63
2019-05-25T16:54:18.154Z,54.93
2019-05-25T16:55:18.144Z,56.90
2019-05-25T16:56:18.137Z,59.27
2019-05-25T16:57:18.137Z,59.66
2019-05-25T16:58:18.131Z,59.72
2019-05-25T16:59:18.136Z,57.10
2019-05-25T17:00:18.129Z,54.72
2019-05-25T17:01:18.392Z,54.07
2019-05-25T17:02:18.105Z,54.79
2019-05-25T17:03:27.768Z,56.27
2019-05-25T17:04:18.110Z,57.05
2019-05-25T17:05:18.086Z,59.17
2019-05-25T17:06:18.085Z,59.07
2019-05-25T17:07:18.070Z,58.04
2019-05-25T17:08:18.278Z,56.74
2019-05-25T17:09:18.072Z,55.16
2019-05-25T17:10:18.046Z,55.08
2019-05-25T17:11:18.040Z,56.11
2019-05-25T17:12:18.037Z,57.14
2019-05-25T17:13:18.024Z,58.11
2019-05-25T17:14:18.037Z,59.62
2019-05-25T17:15:18.007Z,59.78
2019-05-25T17:16:17.998Z,60.84
2019-05-25T17:17:17.992Z,59.75
2019-05-25T17:18:17.983Z,58.49
2019-05-25T17:19:17.975Z,57.20
2019-05-25T17:20:17.976Z,58.04
2019-05-25T17:21:17.961Z,57.14
2019-05-25T17:22:17.947Z,55.04
2019-05-25T17:23:17.958Z,56.40
2019-05-25T17:24:17.928Z,57.37
2019-05-25T17:25:17.940Z,57.16
2019-05-25T17:26:17.911Z,55.02
2019-05-25T17:27:17.903Z,52.82
2019-05-25T17:28:17.896Z,52.63
2019-05-25T17:29:17.884Z,52.05
2019-05-25T17:30:17.892Z,51.95